sensor_id;sensor_type;location;lat;lon;timestamp;P1;durP1;ratioP1;P2;durP2;ratioP2
9906;SDS011;4992;51.628;6.664;2023-05-20T00:01:27;3.40;;;1.65;;
9906;SDS011;4992;51.628;6.664;2023-05-20T00:03:53;1.93;;;1.63;;
9906;SDS011;4992;51.628;6.664;2023-05-20T00:06:19;2.20;;;1.60;;
9906;SDS011;4992;51.628;6.664;2023-05-20T00:08:45;2.87;;;1.63;;
9906;SDS011;4992;51.628;6.664;2023-05-20T00:11:11;4.50;;;1.80;;
9906;SDS011;4992;51.628;6.664;2023-05-20T00:13:37;3.47;;;1.67;;
9906;SDS011;4992;51.628;6.664;2023-05-20T00:16:03;5.97;;;1.57;;
9906;SDS011;4992;51.628;6.664;2023-05-20T00:18:29;3.60;;;1.70;;
9906;SDS011;4992;51.628;6.664;2023-05-20T00:20:56;3.33;;;1.70;;
9906;SDS011;4992;51.628;6.664;2023-05-20T00:23:22;3.33;;;1.67;;
9906;SDS011;4992;51.628;6.664;2023-05-20T00:25:48;3.83;;;1.90;;
9906;SDS011;4992;51.628;6.664;2023-05-20T00:28:14;2.60;;;1.70;;
9906;SDS011;4992;51.628;6.664;2023-05-20T00:30:40;2.73;;;1.57;;
9906;SDS011;4992;51.628;6.664;2023-05-20T00:33:07;2.93;;;1.50;;
9906;SDS011;4992;51.628;6.664;2023-05-20T00:35:33;3.23;;;1.90;;
9906;SDS011;4992;51.628;6.664;2023-05-20T00:37:59;3.80;;;1.73;;
9906;SDS011;4992;51.628;6.664;2023-05-20T00:40:25;2.40;;;1.80;;
9906;SDS011;4992;51.628;6.664;2023-05-20T00:42:51;2.57;;;1.70;;
9906;SDS011;4992;51.628;6.664;2023-05-20T00:45:17;2.63;;;1.97;;
9906;SDS011;4992;51.628;6.664;2023-05-20T00:47:43;2.73;;;1.83;;
9906;SDS011;4992;51.628;6.664;2023-05-20T00:50:09;4.00;;;1.80;;
9906;SDS011;4992;51.628;6.664;2023-05-20T00:52:35;2.30;;;1.63;;
9906;SDS011;4992;51.628;6.664;2023-05-20T00:55:02;2.93;;;1.70;;
9906;SDS011;4992;51.628;6.664;2023-05-20T00:57:28;3.37;;;2.00;;
9906;SDS011;4992;51.628;6.664;2023-05-20T00:59:54;2.67;;;2.07;;
9906;SDS011;4992;51.628;6.664;2023-05-20T01:02:21;3.63;;;1.70;;
9906;SDS011;4992;51.628;6.664;2023-05-20T01:04:47;2.93;;;1.90;;
9906;SDS011;4992;51.628;6.664;2023-05-20T01:07:17;3.10;;;1.67;;
9906;SDS011;4992;51.628;6.664;2023-05-20T01:09:43;1.77;;;1.43;;
9906;SDS011;4992;51.628;6.664;2023-05-20T01:14:58;2.17;;;1.70;;
9906;SDS011;4992;51.628;6.664;2023-05-20T01:17:25;3.60;;;1.97;;
9906;SDS011;4992;51.628;6.664;2023-05-20T01:19:53;3.83;;;2.07;;
9906;SDS011;4992;51.628;6.664;2023-05-20T01:22:23;3.83;;;1.80;;
9906;SDS011;4992;51.628;6.664;2023-05-20T01:24:49;2.00;;;1.90;;
9906;SDS011;4992;51.628;6.664;2023-05-20T01:27:18;5.70;;;1.60;;
9906;SDS011;4992;51.628;6.664;2023-05-20T01:29:46;4.50;;;1.90;;
9906;SDS011;4992;51.628;6.664;2023-05-20T01:32:18;2.60;;;1.63;;
9906;SDS011;4992;51.628;6.664;2023-05-20T01:34:46;3.30;;;2.00;;
9906;SDS011;4992;51.628;6.664;2023-05-20T01:37:13;2.40;;;1.73;;
9906;SDS011;4992;51.628;6.664;2023-05-20T01:39:39;4.57;;;1.90;;
9906;SDS011;4992;51.628;6.664;2023-05-20T01:42:06;4.73;;;1.97;;
9906;SDS011;4992;51.628;6.664;2023-05-20T01:44:32;2.30;;;1.90;;
9906;SDS011;4992;51.628;6.664;2023-05-20T01:46:59;6.17;;;2.23;;
9906;SDS011;4992;51.628;6.664;2023-05-20T01:49:25;5.63;;;2.10;;
9906;SDS011;4992;51.628;6.664;2023-05-20T01:51:51;2.33;;;2.03;;
9906;SDS011;4992;51.628;6.664;2023-05-20T01:54:17;4.27;;;2.03;;
9906;SDS011;4992;51.628;6.664;2023-05-20T01:56:44;4.17;;;1.93;;
9906;SDS011;4992;51.628;6.664;2023-05-20T01:59:10;3.13;;;2.00;;
9906;SDS011;4992;51.628;6.664;2023-05-20T02:01:37;2.20;;;2.00;;
9906;SDS011;4992;51.628;6.664;2023-05-20T02:04:03;2.57;;;1.83;;
9906;SDS011;4992;51.628;6.664;2023-05-20T02:06:29;3.37;;;2.30;;
9906;SDS011;4992;51.628;6.664;2023-05-20T02:08:55;5.27;;;2.30;;
9906;SDS011;4992;51.628;6.664;2023-05-20T02:11:21;3.00;;;2.00;;
9906;SDS011;4992;51.628;6.664;2023-05-20T02:13:48;5.33;;;1.90;;
9906;SDS011;4992;51.628;6.664;2023-05-20T02:16:14;4.63;;;2.00;;
9906;SDS011;4992;51.628;6.664;2023-05-20T02:18:40;3.30;;;2.30;;
9906;SDS011;4992;51.628;6.664;2023-05-20T02:21:06;3.37;;;2.10;;
9906;SDS011;4992;51.628;6.664;2023-05-20T02:23:32;4.13;;;2.00;;
9906;SDS011;4992;51.628;6.664;2023-05-20T02:25:58;2.60;;;1.97;;
9906;SDS011;4992;51.628;6.664;2023-05-20T02:28:25;5.33;;;2.80;;
9906;SDS011;4992;51.628;6.664;2023-05-20T02:30:51;3.07;;;2.27;;
9906;SDS011;4992;51.628;6.664;2023-05-20T02:33:17;2.40;;;2.20;;
9906;SDS011;4992;51.628;6.664;2023-05-20T02:35:43;5.33;;;2.27;;
9906;SDS011;4992;51.628;6.664;2023-05-20T02:38:10;3.13;;;2.40;;
9906;SDS011;4992;51.628;6.664;2023-05-20T02:40:36;3.50;;;2.10;;
9906;SDS011;4992;51.628;6.664;2023-05-20T02:43:02;6.63;;;2.60;;
9906;SDS011;4992;51.628;6.664;2023-05-20T02:45:27;6.13;;;2.00;;
9906;SDS011;4992;51.628;6.664;2023-05-20T02:47:53;4.90;;;2.10;;
9906;SDS011;4992;51.628;6.664;2023-05-20T02:50:19;2.63;;;2.40;;
9906;SDS011;4992;51.628;6.664;2023-05-20T02:52:45;4.10;;;2.53;;
9906;SDS011;4992;51.628;6.664;2023-05-20T02:55:11;4.90;;;2.53;;
9906;SDS011;4992;51.628;6.664;2023-05-20T02:57:38;2.70;;;2.33;;
9906;SDS011;4992;51.628;6.664;2023-05-20T03:00:04;3.57;;;2.20;;
9906;SDS011;4992;51.628;6.664;2023-05-20T03:02:31;4.27;;;2.33;;
9906;SDS011;4992;51.628;6.664;2023-05-20T03:04:57;5.93;;;1.93;;
9906;SDS011;4992;51.628;6.664;2023-05-20T03:07:23;4.70;;;2.57;;
9906;SDS011;4992;51.628;6.664;2023-05-20T03:09:49;6.30;;;2.30;;
9906;SDS011;4992;51.628;6.664;2023-05-20T03:12:15;5.47;;;2.40;;
9906;SDS011;4992;51.628;6.664;2023-05-20T03:14:41;2.53;;;2.03;;
9906;SDS011;4992;51.628;6.664;2023-05-20T03:17:07;6.30;;;2.60;;
9906;SDS011;4992;51.628;6.664;2023-05-20T03:19:33;2.93;;;2.23;;
9906;SDS011;4992;51.628;6.664;2023-05-20T03:21:59;2.33;;;2.00;;
9906;SDS011;4992;51.628;6.664;2023-05-20T03:24:25;4.00;;;2.40;;
9906;SDS011;4992;51.628;6.664;2023-05-20T03:26:51;3.97;;;2.33;;
9906;SDS011;4992;51.628;6.664;2023-05-20T03:29:17;4.37;;;2.13;;
9906;SDS011;4992;51.628;6.664;2023-05-20T03:31:43;5.57;;;2.33;;
9906;SDS011;4992;51.628;6.664;2023-05-20T03:34:09;4.60;;;3.10;;
9906;SDS011;4992;51.628;6.664;2023-05-20T03:36:35;3.97;;;2.10;;
9906;SDS011;4992;51.628;6.664;2023-05-20T03:39:01;2.57;;;2.20;;
9906;SDS011;4992;51.628;6.664;2023-05-20T03:41:28;3.33;;;2.30;;
9906;SDS011;4992;51.628;6.664;2023-05-20T03:43:54;3.27;;;2.10;;
9906;SDS011;4992;51.628;6.664;2023-05-20T03:46:20;5.40;;;2.77;;
9906;SDS011;4992;51.628;6.664;2023-05-20T03:48:46;2.63;;;1.90;;
9906;SDS011;4992;51.628;6.664;2023-05-20T03:51:12;3.70;;;2.10;;
9906;SDS011;4992;51.628;6.664;2023-05-20T03:53:38;7.27;;;2.47;;
9906;SDS011;4992;51.628;6.664;2023-05-20T03:56:04;4.17;;;2.30;;
9906;SDS011;4992;51.628;6.664;2023-05-20T03:58:30;2.87;;;2.57;;
9906;SDS011;4992;51.628;6.664;2023-05-20T04:00:56;3.20;;;2.10;;
9906;SDS011;4992;51.628;6.664;2023-05-20T04:03:22;3.67;;;2.73;;
9906;SDS011;4992;51.628;6.664;2023-05-20T04:05:48;2.97;;;2.30;;
9906;SDS011;4992;51.628;6.664;2023-05-20T04:08:14;2.50;;;2.00;;
9906;SDS011;4992;51.628;6.664;2023-05-20T04:10:42;5.20;;;2.57;;
9906;SDS011;4992;51.628;6.664;2023-05-20T04:13:09;4.33;;;2.33;;
9906;SDS011;4992;51.628;6.664;2023-05-20T04:15:35;4.87;;;2.70;;
9906;SDS011;4992;51.628;6.664;2023-05-20T04:18:02;5.73;;;2.67;;
9906;SDS011;4992;51.628;6.664;2023-05-20T04:20:29;5.07;;;2.87;;
9906;SDS011;4992;51.628;6.664;2023-05-20T04:22:55;3.33;;;2.13;;
9906;SDS011;4992;51.628;6.664;2023-05-20T04:25:21;2.70;;;2.50;;
9906;SDS011;4992;51.628;6.664;2023-05-20T04:27:47;3.73;;;2.30;;
9906;SDS011;4992;51.628;6.664;2023-05-20T04:30:14;3.93;;;2.50;;
9906;SDS011;4992;51.628;6.664;2023-05-20T04:32:43;7.50;;;2.67;;
9906;SDS011;4992;51.628;6.664;2023-05-20T04:35:09;4.67;;;2.33;;
9906;SDS011;4992;51.628;6.664;2023-05-20T04:37:37;5.53;;;2.43;;
9906;SDS011;4992;51.628;6.664;2023-05-20T04:40:03;4.10;;;2.73;;
9906;SDS011;4992;51.628;6.664;2023-05-20T04:42:33;5.87;;;2.50;;
9906;SDS011;4992;51.628;6.664;2023-05-20T04:44:59;5.70;;;2.43;;
9906;SDS011;4992;51.628;6.664;2023-05-20T04:47:28;3.27;;;2.87;;
9906;SDS011;4992;51.628;6.664;2023-05-20T04:49:55;3.80;;;2.57;;
9906;SDS011;4992;51.628;6.664;2023-05-20T04:52:22;3.70;;;2.53;;
9906;SDS011;4992;51.628;6.664;2023-05-20T04:54:47;3.53;;;2.53;;
9906;SDS011;4992;51.628;6.664;2023-05-20T04:57:15;4.43;;;2.30;;
9906;SDS011;4992;51.628;6.664;2023-05-20T04:59:41;8.63;;;2.73;;
9906;SDS011;4992;51.628;6.664;2023-05-20T05:02:09;4.47;;;2.40;;
9906;SDS011;4992;51.628;6.664;2023-05-20T05:04:35;4.43;;;2.67;;
9906;SDS011;4992;51.628;6.664;2023-05-20T05:07:01;5.00;;;2.87;;
9906;SDS011;4992;51.628;6.664;2023-05-20T05:09:27;4.17;;;2.80;;
9906;SDS011;4992;51.628;6.664;2023-05-20T05:11:53;4.87;;;3.00;;
9906;SDS011;4992;51.628;6.664;2023-05-20T05:14:19;3.90;;;2.30;;
9906;SDS011;4992;51.628;6.664;2023-05-20T05:16:46;3.70;;;2.33;;
9906;SDS011;4992;51.628;6.664;2023-05-20T05:19:12;3.20;;;2.33;;
9906;SDS011;4992;51.628;6.664;2023-05-20T05:21:38;4.00;;;2.40;;
9906;SDS011;4992;51.628;6.664;2023-05-20T05:24:03;3.00;;;2.33;;
9906;SDS011;4992;51.628;6.664;2023-05-20T05:26:29;3.73;;;2.57;;
9906;SDS011;4992;51.628;6.664;2023-05-20T05:28:55;3.80;;;2.53;;
9906;SDS011;4992;51.628;6.664;2023-05-20T05:31:21;3.73;;;2.60;;
9906;SDS011;4992;51.628;6.664;2023-05-20T05:33:47;2.47;;;2.00;;
9906;SDS011;4992;51.628;6.664;2023-05-20T05:36:14;3.37;;;2.63;;
9906;SDS011;4992;51.628;6.664;2023-05-20T05:38:40;4.40;;;2.20;;
9906;SDS011;4992;51.628;6.664;2023-05-20T05:41:06;6.15;;;3.00;;
9906;SDS011;4992;51.628;6.664;2023-05-20T05:43:32;3.75;;;2.30;;
9906;SDS011;4992;51.628;6.664;2023-05-20T05:45:58;3.78;;;2.17;;
9906;SDS011;4992;51.628;6.664;2023-05-20T05:48:24;2.83;;;2.20;;
9906;SDS011;4992;51.628;6.664;2023-05-20T05:50:50;6.57;;;2.30;;
9906;SDS011;4992;51.628;6.664;2023-05-20T05:53:16;6.13;;;2.10;;
9906;SDS011;4992;51.628;6.664;2023-05-20T05:55:42;5.30;;;2.58;;
9906;SDS011;4992;51.628;6.664;2023-05-20T05:58:08;4.13;;;2.50;;
9906;SDS011;4992;51.628;6.664;2023-05-20T06:00:34;2.63;;;2.00;;
9906;SDS011;4992;51.628;6.664;2023-05-20T06:02:59;3.88;;;2.40;;
9906;SDS011;4992;51.628;6.664;2023-05-20T06:05:25;3.35;;;2.55;;
9906;SDS011;4992;51.628;6.664;2023-05-20T06:07:51;3.25;;;2.05;;
9906;SDS011;4992;51.628;6.664;2023-05-20T06:10:17;2.15;;;1.92;;
9906;SDS011;4992;51.628;6.664;2023-05-20T06:12:43;2.53;;;2.30;;
9906;SDS011;4992;51.628;6.664;2023-05-20T06:15:09;3.28;;;2.08;;
9906;SDS011;4992;51.628;6.664;2023-05-20T06:17:35;3.33;;;2.05;;
9906;SDS011;4992;51.628;6.664;2023-05-20T06:20:01;3.17;;;2.25;;
9906;SDS011;4992;51.628;6.664;2023-05-20T06:22:27;5.32;;;2.50;;
9906;SDS011;4992;51.628;6.664;2023-05-20T06:24:54;2.33;;;1.75;;
9906;SDS011;4992;51.628;6.664;2023-05-20T06:27:24;3.65;;;2.13;;
9906;SDS011;4992;51.628;6.664;2023-05-20T06:29:50;4.43;;;1.83;;
9906;SDS011;4992;51.628;6.664;2023-05-20T06:32:16;6.57;;;2.20;;
9906;SDS011;4992;51.628;6.664;2023-05-20T06:34:41;3.08;;;2.05;;
9906;SDS011;4992;51.628;6.664;2023-05-20T06:37:07;4.30;;;2.05;;
9906;SDS011;4992;51.628;6.664;2023-05-20T06:39:33;3.30;;;2.08;;
9906;SDS011;4992;51.628;6.664;2023-05-20T06:42:00;2.92;;;1.65;;
9906;SDS011;4992;51.628;6.664;2023-05-20T06:44:26;3.90;;;2.67;;
9906;SDS011;4992;51.628;6.664;2023-05-20T06:46:51;7.50;;;2.03;;
9906;SDS011;4992;51.628;6.664;2023-05-20T06:49:17;3.10;;;2.22;;
9906;SDS011;4992;51.628;6.664;2023-05-20T06:51:43;3.17;;;2.10;;
9906;SDS011;4992;51.628;6.664;2023-05-20T06:54:09;3.10;;;2.15;;
9906;SDS011;4992;51.628;6.664;2023-05-20T06:56:35;5.07;;;2.10;;
9906;SDS011;4992;51.628;6.664;2023-05-20T06:59:01;3.22;;;2.03;;
9906;SDS011;4992;51.628;6.664;2023-05-20T07:01:27;3.78;;;2.08;;
9906;SDS011;4992;51.628;6.664;2023-05-20T07:03:53;1.85;;;1.75;;
9906;SDS011;4992;51.628;6.664;2023-05-20T07:06:19;1.95;;;1.73;;
9906;SDS011;4992;51.628;6.664;2023-05-20T07:08:45;2.28;;;1.90;;
9906;SDS011;4992;51.628;6.664;2023-05-20T07:11:11;3.05;;;1.80;;
9906;SDS011;4992;51.628;6.664;2023-05-20T07:13:37;2.92;;;1.92;;
9906;SDS011;4992;51.628;6.664;2023-05-20T07:16:03;3.42;;;1.85;;
9906;SDS011;4992;51.628;6.664;2023-05-20T07:18:29;2.53;;;1.80;;
9906;SDS011;4992;51.628;6.664;2023-05-20T07:20:55;3.55;;;2.13;;
9906;SDS011;4992;51.628;6.664;2023-05-20T07:23:22;2.47;;;1.70;;
9906;SDS011;4992;51.628;6.664;2023-05-20T07:25:48;3.42;;;1.73;;
9906;SDS011;4992;51.628;6.664;2023-05-20T07:28:15;3.72;;;1.67;;
9906;SDS011;4992;51.628;6.664;2023-05-20T07:30:41;2.05;;;1.80;;
9906;SDS011;4992;51.628;6.664;2023-05-20T07:33:13;1.67;;;1.58;;
9906;SDS011;4992;51.628;6.664;2023-05-20T07:35:39;1.90;;;1.63;;
9906;SDS011;4992;51.628;6.664;2023-05-20T07:38:05;3.55;;;1.83;;
9906;SDS011;4992;51.628;6.664;2023-05-20T07:40:31;4.38;;;1.55;;
9906;SDS011;4992;51.628;6.664;2023-05-20T07:42:57;2.25;;;2.05;;
9906;SDS011;4992;51.628;6.664;2023-05-20T07:45:23;4.03;;;1.60;;
9906;SDS011;4992;51.628;6.664;2023-05-20T07:47:49;2.17;;;1.50;;
9906;SDS011;4992;51.628;6.664;2023-05-20T07:50:15;5.55;;;1.77;;
9906;SDS011;4992;51.628;6.664;2023-05-20T07:52:41;3.38;;;1.90;;
9906;SDS011;4992;51.628;6.664;2023-05-20T07:55:07;3.47;;;2.30;;
9906;SDS011;4992;51.628;6.664;2023-05-20T07:57:33;2.75;;;2.05;;
9906;SDS011;4992;51.628;6.664;2023-05-20T07:59:59;2.53;;;1.58;;
9906;SDS011;4992;51.628;6.664;2023-05-20T08:02:25;2.03;;;1.70;;
9906;SDS011;4992;51.628;6.664;2023-05-20T08:04:51;1.75;;;1.63;;
9906;SDS011;4992;51.628;6.664;2023-05-20T08:07:17;4.25;;;1.90;;
9906;SDS011;4992;51.628;6.664;2023-05-20T08:09:43;2.03;;;1.70;;
9906;SDS011;4992;51.628;6.664;2023-05-20T08:12:09;5.32;;;2.10;;
9906;SDS011;4992;51.628;6.664;2023-05-20T08:14:35;3.75;;;1.85;;
9906;SDS011;4992;51.628;6.664;2023-05-20T08:17:01;3.00;;;2.00;;
9906;SDS011;4992;51.628;6.664;2023-05-20T08:19:27;3.00;;;2.15;;
9906;SDS011;4992;51.628;6.664;2023-05-20T08:21:53;2.00;;;1.90;;
9906;SDS011;4992;51.628;6.664;2023-05-20T08:24:19;2.17;;;1.98;;
9906;SDS011;4992;51.628;6.664;2023-05-20T08:26:45;3.80;;;2.00;;
9906;SDS011;4992;51.628;6.664;2023-05-20T08:29:11;5.63;;;2.58;;
9906;SDS011;4992;51.628;6.664;2023-05-20T08:31:37;3.53;;;2.28;;
9906;SDS011;4992;51.628;6.664;2023-05-20T08:34:03;2.25;;;1.92;;
9906;SDS011;4992;51.628;6.664;2023-05-20T08:36:29;4.22;;;2.22;;
9906;SDS011;4992;51.628;6.664;2023-05-20T08:38:55;3.20;;;2.25;;
9906;SDS011;4992;51.628;6.664;2023-05-20T08:41:21;5.50;;;2.40;;
9906;SDS011;4992;51.628;6.664;2023-05-20T08:43:48;6.45;;;2.92;;
9906;SDS011;4992;51.628;6.664;2023-05-20T08:46:15;5.85;;;3.50;;
9906;SDS011;4992;51.628;6.664;2023-05-20T08:48:41;7.43;;;3.33;;
9906;SDS011;4992;51.628;6.664;2023-05-20T08:51:08;4.43;;;3.45;;
9906;SDS011;4992;51.628;6.664;2023-05-20T08:53:37;4.43;;;3.28;;
9906;SDS011;4992;51.628;6.664;2023-05-20T08:56:04;4.55;;;3.53;;
9906;SDS011;4992;51.628;6.664;2023-05-20T08:58:30;4.47;;;3.42;;
9906;SDS011;4992;51.628;6.664;2023-05-20T09:00:57;3.40;;;3.10;;
9906;SDS011;4992;51.628;6.664;2023-05-20T09:03:22;4.32;;;3.00;;
9906;SDS011;4992;51.628;6.664;2023-05-20T09:05:49;6.03;;;3.17;;
9906;SDS011;4992;51.628;6.664;2023-05-20T09:08:15;3.72;;;3.00;;
9906;SDS011;4992;51.628;6.664;2023-05-20T09:10:41;4.90;;;3.00;;
9906;SDS011;4992;51.628;6.664;2023-05-20T09:13:08;3.45;;;2.75;;
9906;SDS011;4992;51.628;6.664;2023-05-20T09:15:35;4.20;;;2.90;;
9906;SDS011;4992;51.628;6.664;2023-05-20T09:18:01;3.45;;;3.15;;
9906;SDS011;4992;51.628;6.664;2023-05-20T09:20:28;6.13;;;2.83;;
9906;SDS011;4992;51.628;6.664;2023-05-20T09:22:57;3.63;;;2.38;;
9906;SDS011;4992;51.628;6.664;2023-05-20T09:25:24;2.40;;;2.20;;
9906;SDS011;4992;51.628;6.664;2023-05-20T09:27:50;3.58;;;2.45;;
9906;SDS011;4992;51.628;6.664;2023-05-20T09:30:19;2.70;;;2.50;;
9906;SDS011;4992;51.628;6.664;2023-05-20T09:32:51;4.30;;;2.85;;
9906;SDS011;4992;51.628;6.664;2023-05-20T09:35:17;3.17;;;2.60;;
9906;SDS011;4992;51.628;6.664;2023-05-20T09:37:43;3.00;;;2.80;;
9906;SDS011;4992;51.628;6.664;2023-05-20T09:40:11;2.92;;;2.70;;
9906;SDS011;4992;51.628;6.664;2023-05-20T09:42:41;4.00;;;2.80;;
9906;SDS011;4992;51.628;6.664;2023-05-20T09:45:08;2.40;;;2.20;;
9906;SDS011;4992;51.628;6.664;2023-05-20T09:47:36;4.75;;;2.90;;
9906;SDS011;4992;51.628;6.664;2023-05-20T09:50:04;6.78;;;2.83;;
9906;SDS011;4992;51.628;6.664;2023-05-20T09:52:31;3.75;;;2.78;;
9906;SDS011;4992;51.628;6.664;2023-05-20T09:54:58;4.03;;;2.72;;
9906;SDS011;4992;51.628;6.664;2023-05-20T09:57:24;5.35;;;2.53;;
9906;SDS011;4992;51.628;6.664;2023-05-20T09:59:50;3.90;;;2.42;;
9906;SDS011;4992;51.628;6.664;2023-05-20T10:02:17;2.97;;;2.75;;
9906;SDS011;4992;51.628;6.664;2023-05-20T10:04:45;3.17;;;2.58;;
9906;SDS011;4992;51.628;6.664;2023-05-20T10:10:02;3.72;;;2.90;;
9906;SDS011;4992;51.628;6.664;2023-05-20T10:15:09;4.55;;;2.53;;
9906;SDS011;4992;51.628;6.664;2023-05-20T10:17:53;5.18;;;2.58;;
9906;SDS011;4992;51.628;6.664;2023-05-20T10:20:21;3.50;;;2.42;;
9906;SDS011;4992;51.628;6.664;2023-05-20T10:22:56;3.33;;;2.20;;
9906;SDS011;4992;51.628;6.664;2023-05-20T10:25:23;4.80;;;2.80;;
9906;SDS011;4992;51.628;6.664;2023-05-20T10:27:50;5.03;;;2.22;;
9906;SDS011;4992;51.628;6.664;2023-05-20T10:30:20;3.20;;;2.22;;
9906;SDS011;4992;51.628;6.664;2023-05-20T10:32:52;3.45;;;2.22;;
9906;SDS011;4992;51.628;6.664;2023-05-20T10:35:23;2.42;;;2.22;;
9906;SDS011;4992;51.628;6.664;2023-05-20T10:37:53;3.72;;;2.45;;
9906;SDS011;4992;51.628;6.664;2023-05-20T10:40:21;2.40;;;2.20;;
9906;SDS011;4992;51.628;6.664;2023-05-20T10:42:47;3.75;;;2.75;;
9906;SDS011;4992;51.628;6.664;2023-05-20T10:45:26;2.17;;;1.83;;
9906;SDS011;4992;51.628;6.664;2023-05-20T10:47:55;4.20;;;2.33;;
9906;SDS011;4992;51.628;6.664;2023-05-20T10:50:36;4.78;;;2.30;;
9906;SDS011;4992;51.628;6.664;2023-05-20T10:53:03;2.22;;;2.03;;
9906;SDS011;4992;51.628;6.664;2023-05-20T10:55:36;3.85;;;2.35;;
9906;SDS011;4992;51.628;6.664;2023-05-20T10:58:02;3.78;;;2.60;;
9906;SDS011;4992;51.628;6.664;2023-05-20T11:00:29;3.63;;;2.17;;
9906;SDS011;4992;51.628;6.664;2023-05-20T11:02:55;4.30;;;2.05;;
9906;SDS011;4992;51.628;6.664;2023-05-20T11:05:21;3.13;;;2.20;;
9906;SDS011;4992;51.628;6.664;2023-05-20T11:07:47;2.33;;;2.13;;
9906;SDS011;4992;51.628;6.664;2023-05-20T11:10:13;4.13;;;2.60;;
9906;SDS011;4992;51.628;6.664;2023-05-20T11:12:39;4.18;;;1.80;;
9906;SDS011;4992;51.628;6.664;2023-05-20T11:15:05;3.95;;;2.53;;
9906;SDS011;4992;51.628;6.664;2023-05-20T11:17:32;3.72;;;2.58;;
9906;SDS011;4992;51.628;6.664;2023-05-20T11:19:57;3.63;;;2.30;;
9906;SDS011;4992;51.628;6.664;2023-05-20T11:22:25;4.00;;;2.60;;
9906;SDS011;4992;51.628;6.664;2023-05-20T11:24:51;4.10;;;2.30;;
9906;SDS011;4992;51.628;6.664;2023-05-20T11:27:17;2.92;;;2.40;;
9906;SDS011;4992;51.628;6.664;2023-05-20T11:29:43;2.63;;;2.42;;
9906;SDS011;4992;51.628;6.664;2023-05-20T11:32:09;3.00;;;2.10;;
9906;SDS011;4992;51.628;6.664;2023-05-20T11:34:35;4.00;;;2.30;;
9906;SDS011;4992;51.628;6.664;2023-05-20T11:37:02;3.42;;;2.35;;
9906;SDS011;4992;51.628;6.664;2023-05-20T11:39:31;2.65;;;1.92;;
9906;SDS011;4992;51.628;6.664;2023-05-20T11:41:57;5.00;;;2.55;;
9906;SDS011;4992;51.628;6.664;2023-05-20T11:44:24;3.38;;;2.60;;
9906;SDS011;4992;51.628;6.664;2023-05-20T11:46:50;4.13;;;2.55;;
9906;SDS011;4992;51.628;6.664;2023-05-20T11:49:16;2.70;;;2.50;;
9906;SDS011;4992;51.628;6.664;2023-05-20T11:51:42;4.22;;;2.42;;
9906;SDS011;4992;51.628;6.664;2023-05-20T11:54:08;2.30;;;2.20;;
9906;SDS011;4992;51.628;6.664;2023-05-20T11:56:35;3.60;;;2.40;;
9906;SDS011;4992;51.628;6.664;2023-05-20T11:59:02;5.25;;;2.10;;
9906;SDS011;4992;51.628;6.664;2023-05-20T12:01:29;2.08;;;1.98;;
9906;SDS011;4992;51.628;6.664;2023-05-20T12:03:55;2.42;;;2.22;;
9906;SDS011;4992;51.628;6.664;2023-05-20T12:06:21;2.90;;;2.30;;
9906;SDS011;4992;51.628;6.664;2023-05-20T12:08:47;3.42;;;2.03;;
9906;SDS011;4992;51.628;6.664;2023-05-20T12:11:13;4.43;;;2.10;;
9906;SDS011;4992;51.628;6.664;2023-05-20T12:13:39;3.55;;;2.00;;
9906;SDS011;4992;51.628;6.664;2023-05-20T12:16:05;2.13;;;1.92;;
9906;SDS011;4992;51.628;6.664;2023-05-20T12:18:31;1.98;;;1.88;;
9906;SDS011;4992;51.628;6.664;2023-05-20T12:20:57;4.28;;;2.17;;
9906;SDS011;4992;51.628;6.664;2023-05-20T12:23:23;4.35;;;1.77;;
9906;SDS011;4992;51.628;6.664;2023-05-20T12:25:50;5.05;;;2.00;;
9906;SDS011;4992;51.628;6.664;2023-05-20T12:28:16;2.20;;;1.60;;
9906;SDS011;4992;51.628;6.664;2023-05-20T12:30:42;2.90;;;2.00;;
9906;SDS011;4992;51.628;6.664;2023-05-20T12:33:08;1.95;;;1.65;;
9906;SDS011;4992;51.628;6.664;2023-05-20T12:35:41;4.13;;;2.03;;
9906;SDS011;4992;51.628;6.664;2023-05-20T12:38:07;3.58;;;1.65;;
9906;SDS011;4992;51.628;6.664;2023-05-20T12:40:33;2.30;;;2.05;;
9906;SDS011;4992;51.628;6.664;2023-05-20T12:43:00;2.08;;;1.60;;
9906;SDS011;4992;51.628;6.664;2023-05-20T12:45:26;2.22;;;1.55;;
9906;SDS011;4992;51.628;6.664;2023-05-20T12:47:53;2.58;;;1.55;;
9906;SDS011;4992;51.628;6.664;2023-05-20T12:50:20;2.40;;;1.30;;
9906;SDS011;4992;51.628;6.664;2023-05-20T12:52:47;2.28;;;1.48;;
9906;SDS011;4992;51.628;6.664;2023-05-20T12:55:13;1.60;;;1.50;;
9906;SDS011;4992;51.628;6.664;2023-05-20T12:57:39;2.45;;;2.10;;
9906;SDS011;4992;51.628;6.664;2023-05-20T13:00:06;1.45;;;1.35;;
9906;SDS011;4992;51.628;6.664;2023-05-20T13:02:32;2.65;;;1.20;;
9906;SDS011;4992;51.628;6.664;2023-05-20T13:04:58;1.92;;;1.30;;
9906;SDS011;4992;51.628;6.664;2023-05-20T13:07:24;1.67;;;1.58;;
9906;SDS011;4992;51.628;6.664;2023-05-20T13:09:51;5.13;;;1.70;;
9906;SDS011;4992;51.628;6.664;2023-05-20T13:12:17;2.78;;;2.00;;
9906;SDS011;4992;51.628;6.664;2023-05-20T13:14:43;4.32;;;1.77;;
9906;SDS011;4992;51.628;6.664;2023-05-20T13:17:09;1.65;;;1.30;;
9906;SDS011;4992;51.628;6.664;2023-05-20T13:19:35;1.80;;;1.50;;
9906;SDS011;4992;51.628;6.664;2023-05-20T13:22:02;2.40;;;1.63;;
9906;SDS011;4992;51.628;6.664;2023-05-20T13:24:28;3.47;;;1.90;;
9906;SDS011;4992;51.628;6.664;2023-05-20T13:26:54;2.28;;;1.30;;
9906;SDS011;4992;51.628;6.664;2023-05-20T13:29:20;1.20;;;1.10;;
9906;SDS011;4992;51.628;6.664;2023-05-20T13:31:46;1.30;;;1.20;;
9906;SDS011;4992;51.628;6.664;2023-05-20T13:34:13;1.65;;;1.40;;
9906;SDS011;4992;51.628;6.664;2023-05-20T13:36:39;2.20;;;1.50;;
9906;SDS011;4992;51.628;6.664;2023-05-20T13:39:05;3.15;;;2.42;;
9906;SDS011;4992;51.628;6.664;2023-05-20T13:41:31;5.10;;;1.77;;
9906;SDS011;4992;51.628;6.664;2023-05-20T13:43:57;4.00;;;2.85;;
9906;SDS011;4992;51.628;6.664;2023-05-20T13:46:23;1.50;;;1.30;;
9906;SDS011;4992;51.628;6.664;2023-05-20T13:48:49;2.38;;;1.90;;
9906;SDS011;4992;51.628;6.664;2023-05-20T13:51:15;11.43;;;10.30;;
9906;SDS011;4992;51.628;6.664;2023-05-20T13:53:41;3.72;;;1.80;;
9906;SDS011;4992;51.628;6.664;2023-05-20T13:56:07;3.58;;;1.60;;
9906;SDS011;4992;51.628;6.664;2023-05-20T13:58:33;4.97;;;3.83;;
9906;SDS011;4992;51.628;6.664;2023-05-20T14:01:00;3.47;;;1.40;;
9906;SDS011;4992;51.628;6.664;2023-05-20T14:03:27;2.97;;;1.33;;
9906;SDS011;4992;51.628;6.664;2023-05-20T14:05:54;1.23;;;0.88;;
9906;SDS011;4992;51.628;6.664;2023-05-20T14:08:20;2.42;;;1.92;;
9906;SDS011;4992;51.628;6.664;2023-05-20T14:10:46;11.05;;;10.00;;
9906;SDS011;4992;51.628;6.664;2023-05-20T14:13:12;61.35;;;54.83;;
9906;SDS011;4992;51.628;6.664;2023-05-20T14:15:38;100.00;;;89.72;;
9906;SDS011;4992;51.628;6.664;2023-05-20T14:18:04;196.20;;;176.57;;
9906;SDS011;4992;51.628;6.664;2023-05-20T14:20:30;63.13;;;56.53;;
9906;SDS011;4992;51.628;6.664;2023-05-20T14:22:56;21.83;;;19.80;;
9906;SDS011;4992;51.628;6.664;2023-05-20T14:25:22;8.13;;;6.05;;
9906;SDS011;4992;51.628;6.664;2023-05-20T14:27:48;10.65;;;8.85;;
9906;SDS011;4992;51.628;6.664;2023-05-20T14:33:18;93.50;;;75.95;;
9906;SDS011;4992;51.628;6.664;2023-05-20T14:35:43;39.35;;;35.55;;
9906;SDS011;4992;51.628;6.664;2023-05-20T14:38:10;7.57;;;4.00;;
9906;SDS011;4992;51.628;6.664;2023-05-20T14:40:36;15.63;;;10.32;;
9906;SDS011;4992;51.628;6.664;2023-05-20T14:43:02;13.50;;;10.30;;
9906;SDS011;4992;51.628;6.664;2023-05-20T14:45:28;9.60;;;8.15;;
9906;SDS011;4992;51.628;6.664;2023-05-20T14:47:53;44.63;;;40.20;;
9906;SDS011;4992;51.628;6.664;2023-05-20T14:50:19;51.58;;;46.38;;
9906;SDS011;4992;51.628;6.664;2023-05-20T14:52:45;6.03;;;4.65;;
9906;SDS011;4992;51.628;6.664;2023-05-20T14:55:11;3.13;;;2.30;;
9906;SDS011;4992;51.628;6.664;2023-05-20T14:57:37;2.10;;;1.50;;
9906;SDS011;4992;51.628;6.664;2023-05-20T15:00:03;6.85;;;3.83;;
9906;SDS011;4992;51.628;6.664;2023-05-20T15:02:29;3.63;;;1.83;;
9906;SDS011;4992;51.628;6.664;2023-05-20T15:04:55;3.63;;;2.30;;
9906;SDS011;4992;51.628;6.664;2023-05-20T15:07:22;1.77;;;1.67;;
9906;SDS011;4992;51.628;6.664;2023-05-20T15:09:48;2.85;;;2.50;;
9906;SDS011;4992;51.628;6.664;2023-05-20T15:12:14;1.50;;;1.40;;
9906;SDS011;4992;51.628;6.664;2023-05-20T15:14:40;2.08;;;1.60;;
9906;SDS011;4992;51.628;6.664;2023-05-20T15:17:06;4.03;;;1.60;;
9906;SDS011;4992;51.628;6.664;2023-05-20T15:19:32;1.40;;;1.30;;
9906;SDS011;4992;51.628;6.664;2023-05-20T15:21:58;2.47;;;1.83;;